Time;durP1;ratioP1;P1;durP2;ratioP2;P2;SDS_P1;SDS_P2;PMS_P1;PMS_P2;Temp;Humidity;BMP_temperature;BMP_pressure;BME280_temperature;BME280_humidity;BME280_pressure;Samples;Min_cycle;Max_cycle;Signal;HPM_P1;HPM_P2
2022/11/04 00:01:44;;;;;;;10.50;4.93;;;;;;;10.49;100.00;99878.44;5094172;28;20089;-51
2022/11/04 00:04:14;;;;;;;10.10;4.63;;;;;;;10.48;100.00;99879.44;5093880;28;20040;-48
2022/11/04 00:06:44;;;;;;;8.75;5.22;;;;;;;10.49;100.00;99875.00;5092923;28;20079;-53
2022/11/04 00:09:15;;;;;;;8.05;5.07;;;;;;;10.54;100.00;99883.34;5094598;28;20485;-51
2022/11/04 00:14:30;;;;;;;12.32;7.18;;;;;;;10.54;100.00;99896.50;5094719;28;20109;-49
2022/11/04 00:30:54;;;;;;;18.25;12.63;;;;;;;10.45;100.00;99926.97;5093851;28;20498;-52
2022/11/04 00:33:27;;;;;;;19.65;14.27;;;;;;;10.42;100.00;99924.59;5090140;28;20052;-54
2022/11/04 00:35:57;;;;;;;19.00;14.93;;;;;;;10.52;100.00;99929.13;5090358;28;20060;-53
2022/11/04 00:38:27;;;;;;;21.25;15.57;;;;;;;10.44;100.00;99937.59;5089819;28;20044;-53
2022/11/04 00:40:55;;;;;;;20.20;14.98;;;;;;;10.40;100.00;99929.16;5088505;28;20048;-54
2022/11/04 00:43:23;;;;;;;17.30;14.15;;;;;;;10.36;100.00;99934.75;5092814;28;20399;-53
2022/11/04 00:45:51;;;;;;;18.27;14.02;;;;;;;10.36;100.00;99937.38;5093504;28;20048;-53
2022/11/04 00:48:19;;;;;;;17.48;13.23;;;;;;;10.40;100.00;99946.69;5093791;28;20735;-51
2022/11/04 00:50:49;;;;;;;16.27;11.43;;;;;;;10.33;100.00;99951.56;5093668;28;20051;-53
2022/11/04 00:53:17;;;;;;;10.50;8.23;;;;;;;10.31;100.00;99943.78;5093421;28;20070;-54
2022/11/04 00:55:46;;;;;;;11.00;7.97;;;;;;;10.37;100.00;99946.94;5093662;28;20052;-54
2022/11/04 00:58:14;;;;;;;8.35;5.57;;;;;;;10.25;100.00;99948.69;5093370;28;20089;-54
2022/11/04 01:00:43;;;;;;;7.53;4.72;;;;;;;10.20;100.00;99941.19;5091407;28;20052;-54
2022/11/04 01:03:11;;;;;;;7.18;3.95;;;;;;;10.06;100.00;99950.13;5089095;28;20036;-55
2022/11/04 01:05:39;;;;;;;7.32;3.63;;;;;;;10.15;100.00;99954.66;5090741;28;20048;-55
2022/11/04 01:08:07;;;;;;;6.10;3.72;;;;;;;10.07;100.00;99943.91;5091077;28;20051;-53
2022/11/04 01:10:43;;;;;;;5.97;3.00;;;;;;;10.07;100.00;99956.22;5088445;28;20121;-54
2022/11/04 01:13:13;;;;;;;5.22;2.60;;;;;;;9.98;100.00;99961.22;5092334;28;20039;-51
2022/11/04 01:15:41;;;;;;;4.88;2.50;;;;;;;9.85;100.00;99960.47;5091632;28;20063;-54
2022/11/04 01:18:09;;;;;;;5.53;2.67;;;;;;;9.82;100.00;99958.09;5089620;28;20386;-54
2022/11/04 01:20:38;;;;;;;4.55;2.30;;;;;;;9.89;100.00;99958.47;5089495;28;20048;-55
2022/11/04 01:23:06;;;;;;;4.80;2.60;;;;;;;9.72;100.00;99975.50;5088823;28;20056;-55
2022/11/04 01:25:34;;;;;;;5.38;2.38;;;;;;;9.77;100.00;99986.50;5088131;28;20585;-54
2022/11/04 01:28:02;;;;;;;4.57;2.28;;;;;;;9.72;100.00;99992.09;5089436;28;20138;-54
2022/11/04 01:30:31;;;;;;;7.00;2.60;;;;;;;9.73;100.00;99995.56;5090055;28;20130;-54
2022/11/04 01:32:59;;;;;;;4.28;2.13;;;;;;;9.68;100.00;100001.16;5089640;28;20408;-54
2022/11/04 01:35:31;;;;;;;5.05;2.50;;;;;;;9.67;100.00;100003.88;5089171;28;20044;-53
2022/11/04 01:37:59;;;;;;;5.75;2.63;;;;;;;9.60;100.00;100006.97;5089601;28;20563;-53
2022/11/04 01:40:27;;;;;;;5.75;2.70;;;;;;;9.64;100.00;100007.59;5088750;28;20044;-54
2022/11/04 01:42:57;;;;;;;6.30;2.97;;;;;;;9.60;100.00;100006.97;5088773;28;20498;-54
2022/11/04 01:45:26;;;;;;;6.55;3.13;;;;;;;9.64;100.00;100012.84;5089083;28;20399;-54
2022/11/04 01:48:01;;;;;;;7.18;3.33;;;;;;;9.55;100.00;100009.09;5091300;28;20482;-54
2022/11/04 01:50:32;;;;;;;6.10;3.35;;;;;;;9.60;100.00;100006.97;5092556;28;20055;-54
2022/11/04 01:53:06;;;;;;;8.52;4.22;;;;;;;9.53;100.00;100008.38;5091610;28;20048;-54
2022/11/04 01:55:40;;;;;;;10.13;6.20;;;;;;;9.50;100.00;100016.47;5087899;28;20050;-54
2022/11/04 01:58:13;;;;;;;10.45;6.65;;;;;;;9.43;100.00;100021.31;5090829;28;20398;-53
2022/11/04 02:00:43;;;;;;;13.02;7.60;;;;;;;9.37;100.00;100028.84;5089512;28;20494;-54
2022/11/04 02:03:18;;;;;;;13.15;9.10;;;;;;;9.37;100.00;100023.59;5088347;28;20076;-54
2022/11/04 02:05:47;;;;;;;13.48;9.68;;;;;;;9.34;100.00;100032.53;5088153;28;20101;-53
2022/11/04 02:08:16;;;;;;;18.13;12.10;;;;;;;9.25;100.00;100034.00;5089962;28;20043;-55
2022/11/04 02:10:50;;;;;;;17.30;12.95;;;;;;;9.23;100.00;100040.31;5089438;28;20052;-54
2022/11/04 02:13:17;;;;;;;16.50;12.38;;;;;;;9.25;100.00;100047.13;5087818;28;20482;-53
2022/11/04 02:15:54;;;;;;;19.65;12.90;;;;;;;9.27;100.00;100052.25;5089057;28;20105;-51
2022/11/04 02:18:39;;;;;;;16.95;12.40;;;;;;;9.31;100.00;100061.59;5088545;28;20055;-52
2022/11/04 02:21:35;;;;;;;17.85;12.68;;;;;;;9.32;100.00;100055.41;5090780;28;20503;-53
2022/11/04 02:24:39;;;;;;;17.23;12.82;;;;;;;9.40;100.00;100054.84;5061712;28;20568;-53
2022/11/04 02:27:21;;;;;;;17.00;12.80;;;;;;;9.36;100.00;100061.28;5092132;28;20048;-54
2022/11/04 02:30:04;;;;;;;16.90;12.55;;;;;;;9.40;100.00;100057.47;5095252;28;20044;-53
2022/11/04 02:32:58;;;;;;;23.80;14.05;;;;;;;9.38;100.00;100056.72;5096274;28;20105;-51
2022/11/04 02:35:36;;;;;;;19.85;14.32;;;;;;;9.34;100.00;100071.03;5091394;28;20059;-53
2022/11/04 02:38:12;;;;;;;21.38;14.82;;;;;;;9.38;100.00;100072.47;5096265;28;20044;-52
2022/11/04 02:40:48;;;;;;;21.05;14.57;;;;;;;9.39;100.00;100072.38;5095922;28;20056;-54
2022/11/04 02:43:25;;;;;;;21.38;15.63;;;;;;;9.40;100.00;100083.72;5091228;28;20082;-53
2022/11/04 02:46:03;;;;;;;22.92;15.88;;;;;;;9.43;100.00;100078.25;5093933;28;20054;-54
2022/11/04 02:48:38;;;;;;;24.60;17.08;;;;;;;9.40;100.00;100078.47;5092822;28;20083;-50
2022/11/04 02:51:15;;;;;;;22.40;17.25;;;;;;;9.44;100.00;100077.28;5091999;28;20075;-54
2022/11/04 02:53:47;;;;;;;26.55;17.42;;;;;;;9.41;100.00;100074.91;5095801;28;20176;-53
2022/11/04 02:56:18;;;;;;;22.25;18.00;;;;;;;9.44;100.00;100085.16;5096151;28;20061;-53
2022/11/04 02:58:53;;;;;;;25.38;17.83;;;;;;;9.34;100.00;100082.38;5093469;28;20078;-53
2022/11/04 03:01:27;;;;;;;27.45;19.30;;;;;;;9.37;100.00;100090.03;5092150;28;20109;-54
2022/11/04 03:04:01;;;;;;;24.20;18.45;;;;;;;9.27;100.00;100086.38;5091265;28;20036;-53
2022/11/04 03:06:31;;;;;;;23.48;17.98;;;;;;;9.30;100.00;100094.88;5095457;28;20071;-54
2022/11/04 03:09:01;;;;;;;24.15;18.60;;;;;;;9.36;100.00;100104.09;5092582;28;20044;-53
2022/11/04 03:11:30;;;;;;;25.30;18.08;;;;;;;9.38;100.00;100111.84;5092221;28;20040;-53
2022/11/04 03:14:03;;;;;;;23.92;18.55;;;;;;;9.32;100.00;100114.91;5092241;28;20654;-52
2022/11/04 03:16:38;;;;;;;26.63;17.80;;;;;;;9.32;100.00;100126.25;5092652;28;20070;-52
2022/11/04 03:19:14;;;;;;;23.70;17.00;;;;;;;9.33;100.00;100129.72;5095156;28;20048;-54
2022/11/04 03:21:48;;;;;;;24.67;17.52;;;;;;;9.35;100.00;100123.41;5095040;28;20071;-54
2022/11/04 03:24:16;;;;;;;23.85;18.27;;;;;;;9.28;100.00;100130.91;5054451;28;20053;-54
2022/11/04 03:26:49;;;;;;;25.42;17.88;;;;;;;9.33;100.00;100134.97;5051729;28;20057;-52
2022/11/04 03:29:26;;;;;;;24.98;17.33;;;;;;;9.36;100.00;100143.44;5052979;28;20527;-54
2022/11/04 03:32:04;;;;;;;24.40;17.65;;;;;;;9.37;100.00;100149.56;5054790;28;20499;-52
2022/11/04 03:34:33;;;;;;;24.08;16.77;;;;;;;9.31;100.00;100142.94;5054671;28;20052;-54
2022/11/04 03:37:01;;;;;;;25.63;17.27;;;;;;;9.35;100.00;100146.19;5050741;28;20049;-54
2022/11/04 03:39:30;;;;;;;22.25;16.55;;;;;;;9.40;100.00;100150.16;5050824;28;20045;-54
2022/11/04 03:42:00;;;;;;;26.75;16.52;;;;;;;9.37;100.00;100152.19;5054713;28;20437;-55
2022/11/04 03:44:29;;;;;;;22.50;15.75;;;;;;;9.42;100.00;100152.66;5052557;28;20072;-53
2022/11/04 03:47:00;;;;;;;22.05;15.05;;;;;;;9.41;100.00;100158.88;5051102;28;20049;-53
2022/11/04 03:49:28;;;;;;;21.30;14.77;;;;;;;9.38;100.00;100151.22;5051434;28;20084;-53
2022/11/04 03:51:58;;;;;;;26.25;15.38;;;;;;;9.42;100.00;100158.78;5050804;28;20052;-53
2022/11/04 03:54:27;;;;;;;25.63;16.27;;;;;;;9.41;100.00;100159.72;5050209;28;20041;-53
2022/11/04 03:57:19;;;;;;;23.27;15.02;;;;;;;9.43;100.00;100164.84;5051016;28;20431;-53
2022/11/04 04:00:05;;;;;;;20.30;15.20;;;;;;;9.39;100.00;100164.22;5050767;28;20102;-52
2022/11/04 04:02:46;;;;;;;23.02;15.63;;;;;;;9.37;100.00;100165.31;5054260;28;20053;-53
2022/11/04 04:05:22;;;;;;;20.60;14.43;;;;;;;9.37;100.00;100173.19;5054332;28;20098;-54
2022/11/04 04:07:56;;;;;;;22.45;14.70;;;;;;;9.37;100.00;100176.63;5054283;28;20049;-52
2022/11/04 04:10:39;;;;;;;19.48;13.25;;;;;;;9.34;100.00;100174.22;5053538;28;20099;-53
2022/11/04 04:13:19;;;;;;;16.70;11.38;;;;;;;9.32;100.00;100176.09;5051025;28;20099;-53
2022/11/04 04:15:52;;;;;;;15.38;10.38;;;;;;;9.34;100.00;100176.84;5051043;28;20049;-54
2022/11/04 04:18:25;;;;;;;;;;;;;;;9.26;100.00;100187.88;5050797;28;20044;-53
2022/11/04 04:20:54;;;;;;;;;;;;;;;9.29;100.00;100184.19;5049172;28;19925;-53
2022/11/04 04:29:02;;;;;;;16.08;8.35;;;;;;;9.29;100.00;100184.19;5090625;28;20105;-53
2022/11/04 04:31:51;;;;;;;15.60;8.35;;;;;;;9.32;100.00;100185.78;5094032;28;20043;-54
2022/11/04 04:34:23;;;;;;;14.38;8.35;;;;;;;9.25;100.00;100191.44;5093774;28;20076;-55
2022/11/04 04:36:54;;;;;;;;;;;;;;;9.25;100.00;100186.19;5094286;28;20055;-53
2022/11/04 04:45:02;;;;;;;14.57;6.47;;;;;;;9.08;100.00;100210.13;5091150;28;20055;-53
2022/11/04 04:47:42;;;;;;;13.10;6.90;;;;;;;9.15;100.00;100214.03;5089888;28;20449;-53
2022/11/04 04:50:15;;;;;;;12.98;6.97;;;;;;;9.06;100.00;100210.25;5090361;28;21006;-53
2022/11/04 04:52:46;;;;;;;12.65;7.20;;;;;;;9.06;100.00;100206.78;5089878;28;20051;-54
2022/11/04 04:55:15;;;;;;;11.75;6.72;;;;;;;9.11;100.00;100215.19;5086631;28;20055;-51
2022/11/04 04:57:44;;;;;;;11.88;7.35;;;;;;;9.03;100.00;100212.25;5091956;28;20040;-47
2022/11/04 05:00:15;;;;;;;14.10;6.90;;;;;;;8.99;100.00;100216.03;5091896;28;20064;-48
2022/11/04 05:02:43;;;;;;;11.32;7.55;;;;;;;8.89;100.00;100211.41;5093483;28;20052;-48
2022/11/04 05:05:13;;;;;;;13.27;7.68;;;;;;;8.89;100.00;100208.78;5093258;28;20041;-48
2022/11/04 05:07:42;;;;;;;13.52;7.50;;;;;;;8.86;100.00;100208.16;5093402;28;20036;-47
2022/11/04 05:10:13;;;;;;;11.45;6.78;;;;;;;8.80;100.00;100207.59;5090099;28;20036;-50
2022/11/04 05:15:28;;;;;;;13.50;7.43;;;;;;;8.79;100.00;100205.97;5093026;28;20036;-51
2022/11/04 05:17:58;;;;;;;13.68;7.07;;;;;;;8.80;100.00;100204.16;5091833;28;20632;-48
2022/11/04 05:20:29;;;;;;;12.00;7.07;;;;;;;8.60;100.00;100208.97;5093151;28;20563;-50
2022/11/04 05:22:57;;;;;;;14.35;7.07;;;;;;;8.50;100.00;100215.75;5092845;28;20110;-51
2022/11/04 05:25:25;;;;;;;12.95;7.00;;;;;;;8.43;100.00;100217.09;5092925;28;20036;-49
2022/11/04 05:27:53;;;;;;;12.23;7.72;;;;;;;8.36;100.00;100218.44;5092125;28;20115;-49
2022/11/04 05:30:21;;;;;;;12.95;7.47;;;;;;;8.29;100.00;100231.94;5092883;28;20039;-49
2022/11/04 05:32:49;;;;;;;15.70;7.88;;;;;;;8.21;100.00;100236.00;5092839;28;20536;-51
2022/11/04 05:35:17;;;;;;;13.27;6.93;;;;;;;8.16;100.00;100243.31;5092832;28;20075;-49
2022/11/04 05:37:47;;;;;;;11.65;7.70;;;;;;;8.18;100.00;100246.66;5093272;28;20052;-51
2022/11/04 05:40:15;;;;;;;12.48;6.80;;;;;;;8.26;100.00;100242.63;5092775;28;20498;-51
2022/11/04 05:42:43;;;;;;;14.73;7.47;;;;;;;8.27;100.00;100246.06;5092612;28;20127;-48
2022/11/04 05:45:11;;;;;;;12.60;6.97;;;;;;;8.31;100.00;100241.47;5092730;28;20113;-49
2022/11/04 05:47:39;;;;;;;14.80;8.07;;;;;;;8.31;100.00;100246.72;5092560;28;20038;-50
2022/11/04 05:50:08;;;;;;;12.77;7.30;;;;;;;8.28;100.00;100247.75;5091326;28;20048;-52
2022/11/04 05:52:36;;;;;;;14.90;7.43;;;;;;;8.29;100.00;100252.06;5092599;28;20040;-51
2022/11/04 05:55:06;;;;;;;13.23;7.03;;;;;;;8.22;100.00;100261.22;5092622;28;20047;-51
2022/11/04 05:57:37;;;;;;;11.93;6.70;;;;;;;8.22;100.00;100258.59;5092106;28;20044;-47
2022/11/04 06:00:06;;;;;;;12.38;6.72;;;;;;;8.22;100.00;100269.09;5091900;28;20040;-53
2022/11/04 06:02:34;;;;;;;12.57;6.75;;;;;;;8.24;100.00;100264.59;5092282;28;20109;-51
2022/11/04 06:05:06;;;;;;;12.70;6.40;;;;;;;8.25;100.00;100268.91;5092203;28;20052;-51
2022/11/04 06:07:34;;;;;;;12.07;6.15;;;;;;;8.25;100.00;100269.75;5089706;28;20114;-50
2022/11/04 06:10:02;;;;;;;12.95;5.38;;;;;;;8.23;100.00;100278.63;5088408;28;20040;-49
2022/11/04 06:12:31;;;;;;;12.05;5.70;;;;;;;8.20;100.00;100281.47;5091159;28;20494;-51
2022/11/04 06:14:59;;;;;;;11.35;6.45;;;;;;;8.21;100.00;100288.38;5092185;28;20051;-49
2022/11/04 06:17:28;;;;;;;11.02;5.32;;;;;;;8.28;100.00;100294.91;5087065;28;20044;-50
2022/11/04 06:19:56;;;;;;;12.93;5.95;;;;;;;8.26;100.00;100300.25;5088984;28;20101;-49
2022/11/04 06:22:24;;;;;;;12.15;5.40;;;;;;;8.26;100.00;100296.78;5091927;28;20048;-50
2022/11/04 06:24:52;;;;;;;12.50;5.35;;;;;;;8.28;100.00;100306.22;5092279;28;20056;-51
2022/11/04 06:27:20;;;;;;;12.32;4.90;;;;;;;8.27;100.00;100298.47;5090843;28;20036;-51
2022/11/04 06:29:51;;;;;;;12.80;5.30;;;;;;;8.21;100.00;100309.34;5090822;28;20110;-50
2022/11/04 06:32:19;;;;;;;10.90;4.80;;;;;;;8.14;100.00;100303.66;5092391;28;20051;-51
2022/11/04 06:34:47;;;;;;;14.77;5.65;;;;;;;8.21;100.00;100312.78;5090782;28;20087;-50
2022/11/04 06:37:16;;;;;;;10.95;5.22;;;;;;;8.20;100.00;100313.72;5092048;28;20044;-50
2022/11/04 06:39:44;;;;;;;10.95;4.93;;;;;;;8.21;100.00;100320.66;5092024;28;20055;-48
2022/11/04 06:42:12;;;;;;;13.93;6.05;;;;;;;8.12;100.00;100321.22;5091767;28;20044;-51
2022/11/04 06:44:40;;;;;;;10.60;5.13;;;;;;;8.13;100.00;100322.91;5091367;28;20165;-50
2022/11/04 06:47:10;;;;;;;12.95;5.68;;;;;;;8.11;100.00;100323.03;5092060;28;20040;-49
2022/11/04 06:49:38;;;;;;;11.15;5.75;;;;;;;8.17;100.00;100319.16;5091815;28;20097;-49
2022/11/04 06:52:06;;;;;;;12.48;5.43;;;;;;;8.17;100.00;100323.56;5089441;28;20055;-50
2022/11/04 06:54:35;;;;;;;12.15;5.20;;;;;;;8.13;100.00;100330.78;5087071;28;20047;-50
2022/11/04 06:57:03;;;;;;;12.45;6.03;;;;;;;8.12;100.00;100334.31;5091489;28;20072;-53
2022/11/04 06:59:31;;;;;;;16.48;7.22;;;;;;;8.10;100.00;100337.03;5090539;28;20746;-51
2022/11/04 07:01:59;;;;;;;13.13;6.45;;;;;;;8.15;100.00;100344.59;5087817;28;20044;-52
2022/11/04 07:04:29;;;;;;;16.42;6.53;;;;;;;8.14;100.00;100337.72;5087921;28;20145;-53
2022/11/04 07:06:57;;;;;;;13.40;5.75;;;;;;;8.14;100.00;100342.94;5087687;28;20037;-54
2022/11/04 07:09:25;;;;;;;12.23;5.95;;;;;;;8.28;100.00;100350.75;5086798;28;20044;-55
2022/11/04 07:11:53;;;;;;;11.10;5.03;;;;;;;8.19;100.00;100346.09;5088384;28;20052;-51
2022/11/04 07:14:21;;;;;;;9.95;5.03;;;;;;;8.25;100.00;100343.09;5092314;28;20048;-54
2022/11/04 07:16:50;;;;;;;12.77;5.45;;;;;;;8.29;100.00;100346.38;5091356;28;20097;-53
2022/11/04 07:19:19;;;;;;;10.57;4.65;;;;;;;8.33;100.00;100352.25;5092624;28;20106;-53
2022/11/04 07:21:48;;;;;;;10.38;5.22;;;;;;;8.32;100.00;100347.94;5090442;28;20040;-53
2022/11/04 07:24:16;;;;;;;9.50;5.18;;;;;;;8.36;100.00;100349.44;5090339;28;20133;-53
2022/11/04 07:26:44;;;;;;;12.85;5.45;;;;;;;8.28;100.00;100355.16;5091787;28;20512;-53
2022/11/04 07:29:12;;;;;;;10.27;5.25;;;;;;;8.29;100.00;100349.81;5093195;28;20101;-51
2022/11/04 07:31:40;;;;;;;13.45;5.18;;;;;;;8.46;100.00;100350.56;5095271;28;20054;-52
2022/11/04 07:34:08;;;;;;;11.57;5.03;;;;;;;8.64;100.00;100359.00;5091831;28;20499;-54
2022/11/04 07:36:36;;;;;;;11.75;5.50;;;;;;;8.77;100.00;100370.38;5091344;28;20068;-51
2022/11/04 07:39:06;;;;;;;8.63;4.25;;;;;;;8.96;100.00;100372.66;5095070;28;20052;-52
2022/11/04 07:41:35;;;;;;;12.02;5.32;;;;;;;8.98;100.00;100366.47;5095245;28;20050;-51
2022/11/04 07:44:04;;;;;;;15.93;4.75;;;;;;;8.91;100.00;100368.66;5092644;28;20059;-52
2022/11/04 07:46:32;;;;;;;14.18;4.90;;;;;;;8.96;100.00;100366.56;5090531;28;20105;-51
2022/11/04 07:49:01;;;;;;;11.68;4.80;;;;;;;9.16;100.00;100359.16;5094459;28;20040;-51
2022/11/04 07:51:31;;;;;;;11.25;5.03;;;;;;;9.35;100.00;100353.50;5094150;28;20044;-52
2022/11/04 07:53:59;;;;;;;12.63;5.35;;;;;;;9.53;100.00;100359.28;5090338;28;20048;-54
2022/11/04 07:56:28;;;;;;;9.65;4.53;;;;;;;9.54;100.00;100364.41;5091624;28;20494;-54
2022/11/04 07:58:56;;;;;;;14.00;5.60;;;;;;;9.53;100.00;100368.00;5093421;28;20040;-53
2022/11/04 08:01:25;;;;;;;12.27;4.90;;;;;;;9.70;100.00;100373.88;5094022;28;20068;-54
2022/11/04 08:03:53;;;;;;;14.90;4.97;;;;;;;9.88;100.00;100374.41;5090057;28;20063;-52
2022/11/04 08:06:22;;;;;;;11.48;4.55;;;;;;;9.99;100.00;100384.97;5091041;28;20051;-53
2022/11/04 08:08:52;;;;;;;10.45;4.78;;;;;;;10.19;100.00;100383.59;5094114;28;20078;-54
2022/11/04 08:11:24;;;;;;;10.70;4.47;;;;;;;10.32;100.00;100384.41;5094385;28;20115;-53
2022/11/04 08:13:54;;;;;;;13.98;5.70;;;;;;;10.46;100.00;100385.25;5091091;28;20499;-54
2022/11/04 08:16:25;;;;;;;14.18;5.03;;;;;;;10.48;100.00;100401.72;5090811;28;20434;-53
2022/11/04 08:19:01;;;;;;;12.52;4.95;;;;;;;10.53;100.00;100399.63;5089209;28;20097;-53
2022/11/04 08:21:30;;;;;;;12.55;5.53;;;;;;;10.55;100.00;100408.25;5090712;28;20048;-55
2022/11/04 08:23:59;;;;;;;11.23;5.05;;;;;;;10.56;100.00;100414.34;5092841;28;20060;-55
2022/11/04 08:26:27;;;;;;;12.48;4.85;;;;;;;10.70;100.00;100406.28;5093915;28;20036;-55
2022/11/04 08:28:56;;;;;;;12.48;4.60;;;;;;;10.67;100.00;100406.50;5093428;28;20044;-54
2022/11/04 08:31:27;;;;;;;16.35;5.18;;;;;;;10.72;100.00;100409.63;5090621;28;20047;-54
2022/11/04 08:33:56;;;;;;;12.40;4.95;;;;;;;10.65;100.00;100413.69;5089928;28;20536;-54
2022/11/04 08:36:27;;;;;;;15.23;5.85;;;;;;;10.62;100.00;100414.72;5092727;28;20052;-54
2022/11/04 08:38:55;;;;;;;10.73;4.82;;;;;;;10.79;100.00;100415.31;5089805;28;20044;-54
2022/11/04 08:41:26;;;;;;;13.73;5.00;;;;;;;10.88;100.00;100416.41;5090627;28;20123;-54
2022/11/04 08:43:59;;;;;;;13.60;4.60;;;;;;;10.89;100.00;100421.56;5089788;28;20443;-53
2022/11/04 08:46:28;;;;;;;13.07;5.43;;;;;;;10.91;100.00;100424.94;5088385;28;20055;-54
2022/11/04 08:48:58;;;;;;;13.80;5.40;;;;;;;10.96;100.00;100430.69;5088344;28;20054;-55
2022/11/04 08:51:28;;;;;;;15.60;5.30;;;;;;;10.74;100.00;100438.47;5089781;28;20079;-55
2022/11/04 08:53:56;;;;;;;10.80;4.47;;;;;;;10.54;100.00;100432.84;5093531;28;20036;-54
2022/11/04 08:56:26;;;;;;;12.70;5.15;;;;;;;10.69;100.00;100445.84;5091738;28;20044;-56
2022/11/04 08:58:58;;;;;;;13.05;5.10;;;;;;;10.85;100.00;100449.03;5089615;28;20051;-56
2022/11/04 09:01:27;;;;;;;14.73;4.85;;;;;;;10.97;100.00;100449.94;5089522;28;20360;-56
2022/11/04 09:04:02;;;;;;;10.25;4.43;;;;;;;11.07;100.00;100455.38;5087834;28;20392;-56
2022/11/04 09:06:33;;;;;;;12.20;4.60;;;;;;;11.04;100.00;100452.97;5093415;28;20494;-57
2022/11/04 09:09:03;;;;;;;12.73;4.95;;;;;;;11.17;100.00;100453.75;5093182;28;20044;-56
2022/11/04 09:11:32;;;;;;;12.95;5.40;;;;;;;11.16;100.00;100452.88;5093026;28;20123;-56
2022/11/04 09:14:02;;;;;;;12.23;5.25;;;;;;;11.29;100.00;100452.84;5093169;28;20394;-57
2022/11/04 09:16:31;;;;;;;11.57;5.10;;;;;;;11.27;100.00;100451.28;5092504;28;20044;-57
2022/11/04 09:19:01;;;;;;;11.93;4.63;;;;;;;11.09;100.00;100462.19;5092570;28;20051;-56
2022/11/04 09:21:31;;;;;;;14.77;5.20;;;;;;;11.09;100.00;100462.19;5091726;28;20083;-57
2022/11/04 09:23:59;;;;;;;15.05;4.80;;;;;;;11.30;100.00;100465.06;5088192;28;20483;-56
2022/11/04 09:26:28;;;;;;;16.30;4.80;;;;;;;11.35;100.00;100467.34;5089153;28;20044;-57
2022/11/04 09:28:57;;;;;;;11.73;4.55;;;;;;;11.41;100.00;100468.66;5088847;28;20442;-57
2022/11/04 09:31:29;;;;;;;11.15;4.80;;;;;;;11.36;100.00;100481.31;5089069;28;20435;-57
2022/11/04 09:33:59;;;;;;;13.45;4.80;;;;;;;11.45;100.00;100484.13;5089011;28;20140;-58
2022/11/04 09:36:28;;;;;;;13.85;4.80;;;;;;;11.45;100.00;100492.03;5088150;28;20052;-57
2022/11/04 09:38:56;;;;;;;11.05;4.43;;;;;;;11.57;100.00;100495.53;5087921;28;20167;-57
2022/11/04 09:41:50;;;;;;;11.88;4.95;;;;;;;11.50;100.00;100491.69;5089243;28;20410;-53
2022/11/04 09:44:25;;;;;;;12.15;4.30;;;;;;;11.42;100.00;100504.56;5092673;28;20078;-52
2022/11/04 09:47:00;;;;;;;12.63;4.88;;;;;;;11.37;100.00;100509.34;5092627;28;20391;-53
2022/11/04 09:49:35;;;;;;;14.52;5.45;;;;;;;11.42;100.00;100513.31;5092627;28;20097;-54
2022/11/04 09:52:13;;;;;;;10.93;4.35;;;;;;;11.41;100.00;100519.56;5092486;28;20062;-53
2022/11/04 09:54:48;;;;;;;17.35;5.72;;;;;;;11.33;100.00;100516.66;5091091;28;20105;-53
2022/11/04 09:57:18;;;;;;;17.75;4.97;;;;;;;11.35;100.00;100519.16;5092448;28;20093;-52
2022/11/04 09:59:47;;;;;;;16.13;5.88;;;;;;;11.43;100.00;100517.63;5092353;28;20052;-50
2022/11/04 10:02:42;;;;;;;14.00;5.28;;;;;;;11.44;100.00;100521.94;5092287;28;20048;-54
2022/11/04 10:05:22;;;;;;;19.42;5.50;;;;;;;11.43;100.00;100530.78;5088963;28;20117;-53
2022/11/04 10:08:14;;;;;;;12.48;5.03;;;;;;;11.46;100.00;100535.81;5092007;28;20040;-53
2022/11/04 10:10:50;;;;;;;17.38;5.88;;;;;;;11.51;100.00;100527.59;5091870;28;20105;-52
2022/11/04 10:13:27;;;;;;;14.02;5.63;;;;;;;11.46;100.00;100524.47;5091672;28;20048;-51
2022/11/04 10:16:07;;;;;;;13.77;5.97;;;;;;;11.47;100.00;100536.69;5091836;28;20105;-53
2022/11/04 10:18:53;;;;;;;12.90;5.95;;;;;;;11.43;100.00;100533.44;5092057;28;20087;-54
2022/11/04 10:21:32;;;;;;;13.90;6.22;;;;;;;11.45;100.00;100538.56;5092487;28;20048;-53
2022/11/04 10:24:18;;;;;;;16.60;7.13;;;;;;;11.42;100.00;100542.28;5092081;28;20117;-54
2022/11/04 10:26:56;;;;;;;13.70;6.07;;;;;;;11.33;100.00;100551.69;5089689;28;20442;-53
2022/11/04 10:29:36;;;;;;;12.23;6.45;;;;;;;11.35;100.00;100556.03;5088528;28;20044;-54
2022/11/04 10:32:13;;;;;;;13.77;6.57;;;;;;;11.53;100.00;100557.28;5092168;28;20051;-53
2022/11/04 10:34:55;;;;;;;12.20;5.95;;;;;;;11.57;100.00;100548.19;5091690;28;20062;-53
2022/11/04 10:37:24;;;;;;;15.43;7.22;;;;;;;11.55;100.00;100550.13;5087645;28;20075;-51
2022/11/04 10:40:01;;;;;;;16.33;7.30;;;;;;;11.69;100.00;100554.38;5087217;28;20059;-52
2022/11/04 10:42:32;;;;;;;15.43;7.93;;;;;;;11.82;100.00;100551.63;5090174;28;20048;-51
2022/11/04 10:45:03;;;;;;;20.70;8.68;;;;;;;11.90;100.00;100557.19;5088271;28;20052;-54
2022/11/04 10:47:44;;;;;;;20.58;8.65;;;;;;;12.14;100.00;100556.31;5089625;28;20418;-52
2022/11/04 10:50:37;;;;;;;19.80;8.88;;;;;;;12.38;100.00;100548.31;5090577;28;20051;-53
2022/11/04 10:53:10;;;;;;;;;;;;;;;12.29;100.00;100551.66;5096358;28;20105;-52
2022/11/04 10:55:44;;;;;;;42.58;12.02;;;;;;;12.30;100.00;100550.72;5096041;28;19988;-53
2022/11/04 10:58:18;;;;;;;19.70;8.05;;;;;;;12.45;100.00;100546.88;5095770;28;20039;-53
2022/11/04 11:00:46;;;;;;;14.27;7.53;;;;;;;12.56;100.00;100551.31;5095653;28;20047;-53
2022/11/04 11:03:30;;;;;;;16.50;7.95;;;;;;;12.40;100.00;100542.94;5095623;28;20042;-52
2022/11/04 11:06:15;;;;;;;14.60;8.50;;;;;;;12.61;100.00;100553.59;5095647;28;20072;-52
2022/11/04 11:08:44;;;;;;;16.13;8.15;;;;;;;12.58;100.00;100554.66;5095508;28;20097;-52
2022/11/04 11:11:14;;;;;;;13.63;7.43;;;;;;;12.71;100.00;100559.84;5095547;28;20471;-54
2022/11/04 11:13:45;;;;;;;17.13;8.10;;;;;;;12.79;100.00;100553.97;5093253;28;20058;-52
2022/11/04 11:16:18;;;;;;;15.95;8.00;;;;;;;12.76;100.00;100557.69;5092154;28;20048;-53
2022/11/04 11:19:05;;;;;;;;;;;;;;;12.80;100.00;100558.25;5091785;28;20062;-53
2022/11/04 11:21:44;;;;;;;15.88;7.78;;;;;;;12.82;100.00;100565.09;5090934;28;19920;-54
2022/11/04 11:24:19;;;;;;;15.52;7.35;;;;;;;12.71;100.00;100559.84;5091951;28;20506;-54
2022/11/04 11:26:50;;;;;;;14.55;7.68;;;;;;;12.81;100.00;100555.50;5095143;28;20063;-53
2022/11/04 11:29:25;;;;;;;15.63;8.02;;;;;;;12.80;100.00;100553.84;5094679;28;20445;-54
2022/11/04 11:31:55;;;;;;;15.18;8.40;;;;;;;12.89;100.00;100554.06;5094406;28;20087;-54
2022/11/04 11:34:26;;;;;;;14.77;7.85;;;;;;;13.01;100.00;100553.91;5094824;28;20048;-54
2022/11/04 11:36:57;;;;;;;13.75;8.15;;;;;;;12.96;100.00;100563.16;5094605;28;20044;-53
2022/11/04 11:39:28;;;;;;;15.80;8.15;;;;;;;12.91;100.00;100560.06;5094614;28;20040;-54
2022/11/04 11:41:59;;;;;;;14.60;8.25;;;;;;;13.05;100.00;100573.00;5094234;28;20376;-53
2022/11/04 11:44:31;;;;;;;15.82;8.90;;;;;;;13.15;100.00;100568.63;5093693;28;20101;-54
2022/11/04 11:47:01;;;;;;;17.35;8.52;;;;;;;13.16;100.00;100569.50;5094983;28;20068;-54
2022/11/04 11:49:33;;;;;;;14.32;8.30;;;;;;;13.20;100.00;100578.84;5094755;28;20048;-53
2022/11/04 11:52:30;;;;;;;17.25;9.15;;;;;;;13.29;100.00;100574.63;5095116;28;20036;-56
2022/11/04 11:55:05;;;;;;;15.25;9.57;;;;;;;13.19;100.00;100567.44;5090197;28;20085;-51
2022/11/04 11:57:43;;;;;;;19.33;9.15;;;;;;;13.21;100.00;100569.97;5091912;28;20130;-53
2022/11/04 12:00:15;;;;;;;16.65;9.65;;;;;;;13.28;100.00;100571.16;5093302;28;20134;-52
2022/11/04 12:03:14;;;;;;;17.30;9.65;;;;;;;13.31;100.00;100588.56;5094176;28;20444;-52
2022/11/04 12:05:52;;;;;;;13.00;8.82;;;;;;;13.49;100.00;100580.97;5094587;28;20056;-52
2022/11/04 12:09:17;;;;;;;15.48;9.00;;;;;;;13.59;100.00;100594.25;5091340;28;20115;-53